sensor_id;sensor_type;location;lat;lon;timestamp;pressure;altitude;pressure_sealevel;temperature;humidity
10732;BME280;5417;42.686;23.244;2023-11-18T00:00:57;93605.22;;;8.88;69.46
10732;BME280;5417;42.686;23.244;2023-11-18T00:03:25;93610.91;;;8.72;69.30
10732;BME280;5417;42.686;23.244;2023-11-18T00:05:53;93612.53;;;8.73;69.48
10732;BME280;5417;42.686;23.244;2023-11-18T00:08:20;93621.00;;;8.75;69.74
10732;BME280;5417;42.686;23.244;2023-11-18T00:10:47;93611.59;;;8.83;69.51
10732;BME280;5417;42.686;23.244;2023-11-18T00:13:15;93611.34;;;8.87;69.08
10732;BME280;5417;42.686;23.244;2023-11-18T00:15:42;93619.16;;;8.87;69.58
10732;BME280;5417;42.686;23.244;2023-11-18T00:18:11;93635.22;;;8.80;69.25
10732;BME280;5417;42.686;23.244;2023-11-18T00:20:39;93643.22;;;8.58;68.29
10732;BME280;5417;42.686;23.244;2023-11-18T00:23:07;93648.41;;;8.58;69.15
10732;BME280;5417;42.686;23.244;2023-11-18T00:25:36;93633.75;;;8.47;68.50
10732;BME280;5417;42.686;23.244;2023-11-18T00:28:08;93618.06;;;8.49;69.34
10732;BME280;5417;42.686;23.244;2023-11-18T00:30:35;93608.78;;;8.46;68.97
10732;BME280;5417;42.686;23.244;2023-11-18T00:33:02;93606.44;;;8.34;69.08
10732;BME280;5417;42.686;23.244;2023-11-18T00:35:29;93621.31;;;8.20;69.84
10732;BME280;5417;42.686;23.244;2023-11-18T00:37:59;93609.84;;;8.34;70.56
10732;BME280;5417;42.686;23.244;2023-11-18T00:40:27;93603.44;;;8.38;69.83
10732;BME280;5417;42.686;23.244;2023-11-18T00:42:55;93618.91;;;8.29;69.64
10732;BME280;5417;42.686;23.244;2023-11-18T00:45:23;93621.50;;;8.29;70.54
10732;BME280;5417;42.686;23.244;2023-11-18T00:47:51;93617.63;;;8.34;70.03
10732;BME280;5417;42.686;23.244;2023-11-18T00:50:18;93614.66;;;8.28;69.93
10732;BME280;5417;42.686;23.244;2023-11-18T00:52:45;93622.44;;;8.28;69.69
10732;BME280;5417;42.686;23.244;2023-11-18T00:55:17;93621.22;;;8.32;69.40
10732;BME280;5417;42.686;23.244;2023-11-18T00:57:48;93621.50;;;8.29;69.24
10732;BME280;5417;42.686;23.244;2023-11-18T01:00:15;93631.44;;;8.23;68.82
10732;BME280;5417;42.686;23.244;2023-11-18T01:02:47;93637.69;;;8.21;69.94
10732;BME280;5417;42.686;23.244;2023-11-18T01:05:15;93631.81;;;8.19;70.96
10732;BME280;5417;42.686;23.244;2023-11-18T01:07:43;93637.56;;;8.22;70.34
10732;BME280;5417;42.686;23.244;2023-11-18T01:10:10;93645.59;;;8.19;69.43
10732;BME280;5417;42.686;23.244;2023-11-18T01:12:37;93637.41;;;8.14;71.05
10732;BME280;5417;42.686;23.244;2023-11-18T01:15:07;93646.84;;;8.25;69.57
10732;BME280;5417;42.686;23.244;2023-11-18T01:17:35;93648.38;;;8.28;69.83
10732;BME280;5417;42.686;23.244;2023-11-18T01:20:03;93659.28;;;8.31;70.31
10732;BME280;5417;42.686;23.244;2023-11-18T01:22:35;93652.19;;;8.03;69.79
10732;BME280;5417;42.686;23.244;2023-11-18T01:25:02;93655.81;;;7.90;69.24
10732;BME280;5417;42.686;23.244;2023-11-18T01:27:29;93639.47;;;7.90;69.94
10732;BME280;5417;42.686;23.244;2023-11-18T01:29:56;93644.81;;;7.98;70.20
10732;BME280;5417;42.686;23.244;2023-11-18T01:32:24;93651.78;;;7.98;69.45
10732;BME280;5417;42.686;23.244;2023-11-18T01:34:51;93641.41;;;7.98;69.38
10732;BME280;5417;42.686;23.244;2023-11-18T01:37:19;93653.03;;;8.03;70.07
10732;BME280;5417;42.686;23.244;2023-11-18T01:39:48;93649.88;;;8.00;68.92
10732;BME280;5417;42.686;23.244;2023-11-18T01:42:15;93634.72;;;7.95;70.09
10732;BME280;5417;42.686;23.244;2023-11-18T01:44:43;93640.88;;;8.04;68.67
10732;BME280;5417;42.686;23.244;2023-11-18T01:47:10;93644.69;;;8.00;69.89
10732;BME280;5417;42.686;23.244;2023-11-18T01:49:43;93653.22;;;7.90;67.54
10732;BME280;5417;42.686;23.244;2023-11-18T01:52:10;93644.75;;;7.88;67.76
10732;BME280;5417;42.686;23.244;2023-11-18T01:54:38;93646.16;;;7.93;68.74
10732;BME280;5417;42.686;23.244;2023-11-18T01:57:05;93641.72;;;7.83;67.10
10732;BME280;5417;42.686;23.244;2023-11-18T01:59:35;93654.22;;;7.78;67.15
10732;BME280;5417;42.686;23.244;2023-11-18T02:02:05;93649.53;;;7.72;67.52
10732;BME280;5417;42.686;23.244;2023-11-18T02:04:32;93657.75;;;7.77;67.85
10732;BME280;5417;42.686;23.244;2023-11-18T02:07:01;93666.13;;;7.81;68.62
10732;BME280;5417;42.686;23.244;2023-11-18T02:09:34;93664.22;;;7.83;68.02
10732;BME280;5417;42.686;23.244;2023-11-18T02:12:11;93656.50;;;7.93;67.41
10732;BME280;5417;42.686;23.244;2023-11-18T02:14:43;93652.34;;;8.01;66.75
10732;BME280;5417;42.686;23.244;2023-11-18T02:17:14;93642.88;;;7.90;65.57
10732;BME280;5417;42.686;23.244;2023-11-18T02:19:42;93654.31;;;7.88;65.64
10732;BME280;5417;42.686;23.244;2023-11-18T02:22:11;93649.84;;;7.79;64.39
10732;BME280;5417;42.686;23.244;2023-11-18T02:24:39;93663.88;;;7.76;65.84
10732;BME280;5417;42.686;23.244;2023-11-18T02:27:10;93656.31;;;7.64;64.66
10732;BME280;5417;42.686;23.244;2023-11-18T02:29:40;93663.81;;;7.67;65.90
10732;BME280;5417;42.686;23.244;2023-11-18T02:32:15;93664.00;;;7.54;65.61
10732;BME280;5417;42.686;23.244;2023-11-18T02:34:52;93646.81;;;7.53;66.09
10732;BME280;5417;42.686;23.244;2023-11-18T02:37:25;93654.53;;;7.64;65.64
10732;BME280;5417;42.686;23.244;2023-11-18T02:39:58;93661.53;;;7.73;64.58
10732;BME280;5417;42.686;23.244;2023-11-18T02:42:34;93669.94;;;7.66;65.09
10732;BME280;5417;42.686;23.244;2023-11-18T02:45:02;93663.63;;;7.58;65.03
10732;BME280;5417;42.686;23.244;2023-11-18T02:47:32;93666.59;;;7.54;64.92
10732;BME280;5417;42.686;23.244;2023-11-18T02:49:59;93678.34;;;7.58;66.15
10732;BME280;5417;42.686;23.244;2023-11-18T02:52:32;93679.34;;;7.46;65.24
10732;BME280;5417;42.686;23.244;2023-11-18T02:54:59;93669.81;;;7.46;65.44
10732;BME280;5417;42.686;23.244;2023-11-18T02:57:30;93663.72;;;7.36;65.97
10732;BME280;5417;42.686;23.244;2023-11-18T02:59:58;93660.53;;;7.44;65.75
10732;BME280;5417;42.686;23.244;2023-11-18T03:02:25;93671.00;;;7.42;65.14
10732;BME280;5417;42.686;23.244;2023-11-18T03:04:53;93670.56;;;7.37;64.88
10732;BME280;5417;42.686;23.244;2023-11-18T03:07:23;93674.47;;;7.32;63.27
10732;BME280;5417;42.686;23.244;2023-11-18T03:09:54;93673.97;;;7.26;63.93
10732;BME280;5417;42.686;23.244;2023-11-18T03:12:22;93685.66;;;7.21;64.94
10732;BME280;5417;42.686;23.244;2023-11-18T03:14:54;93680.19;;;6.92;64.65
10732;BME280;5417;42.686;23.244;2023-11-18T03:17:23;93701.59;;;6.94;65.49
10732;BME280;5417;42.686;23.244;2023-11-18T03:19:50;93698.66;;;6.87;65.36
10732;BME280;5417;42.686;23.244;2023-11-18T03:22:17;93694.75;;;7.04;66.01
10732;BME280;5417;42.686;23.244;2023-11-18T03:24:43;93705.19;;;7.14;64.18
10732;BME280;5417;42.686;23.244;2023-11-18T03:27:14;93708.06;;;7.00;64.55
10732;BME280;5417;42.686;23.244;2023-11-18T03:29:41;93713.00;;;6.91;64.75
10732;BME280;5417;42.686;23.244;2023-11-18T03:32:15;93708.19;;;6.64;65.07
10732;BME280;5417;42.686;23.244;2023-11-18T03:34:43;93724.06;;;6.49;65.75
10732;BME280;5417;42.686;23.244;2023-11-18T03:37:10;93705.16;;;6.48;65.37
10732;BME280;5417;42.686;23.244;2023-11-18T03:39:37;93715.13;;;6.53;65.88
10732;BME280;5417;42.686;23.244;2023-11-18T03:42:04;93717.13;;;6.38;65.10
10732;BME280;5417;42.686;23.244;2023-11-18T03:44:33;93736.41;;;6.34;65.50
10732;BME280;5417;42.686;23.244;2023-11-18T03:47:01;93733.22;;;6.42;65.76
10732;BME280;5417;42.686;23.244;2023-11-18T03:49:33;93720.88;;;6.45;64.85
10732;BME280;5417;42.686;23.244;2023-11-18T03:52:01;93720.06;;;6.45;65.76
10732;BME280;5417;42.686;23.244;2023-11-18T03:54:28;93706.31;;;6.33;64.83
10732;BME280;5417;42.686;23.244;2023-11-18T03:56:55;93692.88;;;6.06;65.72
10732;BME280;5417;42.686;23.244;2023-11-18T03:59:22;93713.91;;;6.12;65.74
10732;BME280;5417;42.686;23.244;2023-11-18T04:01:49;93719.06;;;6.12;65.51
10732;BME280;5417;42.686;23.244;2023-11-18T04:04:17;93712.38;;;6.21;65.52
10732;BME280;5417;42.686;23.244;2023-11-18T04:06:45;93717.56;;;6.21;63.85
10732;BME280;5417;42.686;23.244;2023-11-18T04:09:15;93725.06;;;6.13;64.00
10732;BME280;5417;42.686;23.244;2023-11-18T04:11:43;93724.25;;;6.12;64.94
10732;BME280;5417;42.686;23.244;2023-11-18T04:14:11;93731.94;;;5.90;64.40
10732;BME280;5417;42.686;23.244;2023-11-18T04:16:38;93717.09;;;5.81;65.31
10732;BME280;5417;42.686;23.244;2023-11-18T04:19:06;93717.59;;;5.86;65.29
10732;BME280;5417;42.686;23.244;2023-11-18T04:21:33;93725.03;;;5.90;64.76
10732;BME280;5417;42.686;23.244;2023-11-18T04:24:01;93731.75;;;6.04;64.11
10732;BME280;5417;42.686;23.244;2023-11-18T04:26:29;93741.38;;;6.02;64.65
10732;BME280;5417;42.686;23.244;2023-11-18T04:28:56;93743.47;;;5.97;64.24
10732;BME280;5417;42.686;23.244;2023-11-18T04:31:23;93731.94;;;5.90;64.32
10732;BME280;5417;42.686;23.244;2023-11-18T04:33:50;93733.19;;;5.84;64.11
10732;BME280;5417;42.686;23.244;2023-11-18T04:36:17;93729.91;;;5.82;64.53
10732;BME280;5417;42.686;23.244;2023-11-18T04:38:47;93740.41;;;5.92;64.04
10732;BME280;5417;42.686;23.244;2023-11-18T04:41:16;93729.44;;;5.88;64.47
10732;BME280;5417;42.686;23.244;2023-11-18T04:43:43;93734.25;;;5.82;65.14
10732;BME280;5417;42.686;23.244;2023-11-18T04:46:11;93728.31;;;5.68;64.70
10732;BME280;5417;42.686;23.244;2023-11-18T04:48:38;93731.06;;;5.54;64.83
10732;BME280;5417;42.686;23.244;2023-11-18T04:51:05;93746.56;;;5.54;64.67
10732;BME280;5417;42.686;23.244;2023-11-18T04:53:32;93762.44;;;5.61;64.66
10732;BME280;5417;42.686;23.244;2023-11-18T04:55:59;93755.84;;;5.57;64.68
10732;BME280;5417;42.686;23.244;2023-11-18T04:58:28;93759.13;;;5.59;64.97
10732;BME280;5417;42.686;23.244;2023-11-18T05:00:55;93759.84;;;5.61;64.22
10732;BME280;5417;42.686;23.244;2023-11-18T05:03:22;93753.06;;;5.71;64.76
10732;BME280;5417;42.686;23.244;2023-11-18T05:05:49;93745.97;;;5.75;64.13
10732;BME280;5417;42.686;23.244;2023-11-18T05:08:20;93744.13;;;5.88;64.65
10732;BME280;5417;42.686;23.244;2023-11-18T05:10:48;93742.06;;;5.93;63.90
10732;BME280;5417;42.686;23.244;2023-11-18T05:13:17;93734.56;;;6.01;63.18
10732;BME280;5417;42.686;23.244;2023-11-18T05:15:46;93733.91;;;5.86;62.17
10732;BME280;5417;42.686;23.244;2023-11-18T05:18:15;93739.91;;;5.87;63.53
10732;BME280;5417;42.686;23.244;2023-11-18T05:20:42;93738.94;;;5.77;63.38
10732;BME280;5417;42.686;23.244;2023-11-18T05:23:10;93737.44;;;5.85;63.69
10732;BME280;5417;42.686;23.244;2023-11-18T05:25:39;93735.25;;;5.92;63.54
10732;BME280;5417;42.686;23.244;2023-11-18T05:28:06;93725.84;;;5.91;63.41
10732;BME280;5417;42.686;23.244;2023-11-18T05:30:34;93730.44;;;5.98;62.86
10732;BME280;5417;42.686;23.244;2023-11-18T05:33:03;93724.09;;;5.91;61.79
10732;BME280;5417;42.686;23.244;2023-11-18T05:35:33;93746.16;;;5.95;61.39
10732;BME280;5417;42.686;23.244;2023-11-18T05:38:01;93750.16;;;5.99;62.26
10732;BME280;5417;42.686;23.244;2023-11-18T05:40:29;93734.78;;;5.98;61.85
10732;BME280;5417;42.686;23.244;2023-11-18T05:42:56;93734.78;;;5.98;61.41
10732;BME280;5417;42.686;23.244;2023-11-18T05:45:24;93720.47;;;6.05;62.01
10732;BME280;5417;42.686;23.244;2023-11-18T05:47:57;93724.91;;;5.92;62.45
10732;BME280;5417;42.686;23.244;2023-11-18T05:50:26;93719.53;;;5.95;62.47
10732;BME280;5417;42.686;23.244;2023-11-18T05:52:54;93733.63;;;6.02;61.54
10732;BME280;5417;42.686;23.244;2023-11-18T05:55:21;93728.31;;;5.92;61.48
10732;BME280;5417;42.686;23.244;2023-11-18T05:57:48;93719.22;;;5.87;61.64
10732;BME280;5417;42.686;23.244;2023-11-18T06:00:15;93721.16;;;5.96;61.41
10732;BME280;5417;42.686;23.244;2023-11-18T06:02:44;93734.56;;;6.01;61.28
10732;BME280;5417;42.686;23.244;2023-11-18T06:05:12;93745.59;;;6.03;61.33
10732;BME280;5417;42.686;23.244;2023-11-18T06:07:41;93744.88;;;5.90;61.68
10732;BME280;5417;42.686;23.244;2023-11-18T06:10:08;93732.41;;;5.71;63.24
10732;BME280;5417;42.686;23.244;2023-11-18T06:12:37;93745.06;;;5.63;63.89
10732;BME280;5417;42.686;23.244;2023-11-18T06:15:06;93751.84;;;5.53;65.57
10732;BME280;5417;42.686;23.244;2023-11-18T06:17:39;93747.72;;;5.50;64.98
10732;BME280;5417;42.686;23.244;2023-11-18T06:20:08;93745.97;;;5.51;65.63
10732;BME280;5417;42.686;23.244;2023-11-18T06:22:36;93749.94;;;5.44;65.18
10732;BME280;5417;42.686;23.244;2023-11-18T06:25:05;93752.88;;;5.50;65.87
10732;BME280;5417;42.686;23.244;2023-11-18T06:27:34;93755.91;;;5.44;64.47
10732;BME280;5417;42.686;23.244;2023-11-18T06:30:01;93752.41;;;5.45;64.96
10732;BME280;5417;42.686;23.244;2023-11-18T06:32:28;93756.94;;;5.42;64.27
10732;BME280;5417;42.686;23.244;2023-11-18T06:34:56;93762.06;;;5.54;65.49
10732;BME280;5417;42.686;23.244;2023-11-18T06:37:24;93760.13;;;5.45;64.41
10732;BME280;5417;42.686;23.244;2023-11-18T06:39:51;93757.06;;;5.40;63.27
10732;BME280;5417;42.686;23.244;2023-11-18T06:42:19;93755.84;;;5.57;64.48
10732;BME280;5417;42.686;23.244;2023-11-18T06:44:49;93761.88;;;5.68;63.36
10732;BME280;5417;42.686;23.244;2023-11-18T06:47:15;93751.88;;;5.64;63.29
10732;BME280;5417;42.686;23.244;2023-11-18T06:49:44;93753.72;;;5.75;62.84
10732;BME280;5417;42.686;23.244;2023-11-18T06:52:13;93752.69;;;5.88;61.97
10732;BME280;5417;42.686;23.244;2023-11-18T06:54:41;93765.69;;;5.76;62.24
10732;BME280;5417;42.686;23.244;2023-11-18T06:57:07;93772.34;;;5.91;63.57
10732;BME280;5417;42.686;23.244;2023-11-18T06:59:36;93768.38;;;6.09;61.54
10732;BME280;5417;42.686;23.244;2023-11-18T07:02:03;93747.97;;;6.17;60.98
10732;BME280;5417;42.686;23.244;2023-11-18T07:04:31;93757.81;;;6.01;61.13
10732;BME280;5417;42.686;23.244;2023-11-18T07:06:58;93765.53;;;5.90;61.21
10732;BME280;5417;42.686;23.244;2023-11-18T07:09:25;93762.50;;;5.96;61.16
10732;BME280;5417;42.686;23.244;2023-11-18T07:11:53;93771.34;;;6.16;66.14
10732;BME280;5417;42.686;23.244;2023-11-18T07:14:21;93768.03;;;6.03;62.75
10732;BME280;5417;42.686;23.244;2023-11-18T07:16:52;93764.13;;;5.97;62.41
10732;BME280;5417;42.686;23.244;2023-11-18T07:19:19;93779.53;;;5.98;62.19
10732;BME280;5417;42.686;23.244;2023-11-18T07:21:46;93785.50;;;5.99;61.24
10732;BME280;5417;42.686;23.244;2023-11-18T07:24:14;93784.19;;;5.93;61.65
10732;BME280;5417;42.686;23.244;2023-11-18T07:26:42;93780.50;;;5.85;61.71
10732;BME280;5417;42.686;23.244;2023-11-18T07:29:09;93791.66;;;5.85;61.90
10732;BME280;5417;42.686;23.244;2023-11-18T07:31:37;93790.00;;;5.84;62.65
10732;BME280;5417;42.686;23.244;2023-11-18T07:34:05;93793.19;;;5.88;61.36
10732;BME280;5417;42.686;23.244;2023-11-18T07:36:32;93807.88;;;5.87;61.46
10732;BME280;5417;42.686;23.244;2023-11-18T07:38:59;93798.31;;;5.77;62.68
10732;BME280;5417;42.686;23.244;2023-11-18T07:41:28;93798.53;;;5.74;62.29
10732;BME280;5417;42.686;23.244;2023-11-18T07:43:57;93798.34;;;5.64;62.72
10732;BME280;5417;42.686;23.244;2023-11-18T07:46:26;93800.09;;;5.63;62.57
10732;BME280;5417;42.686;23.244;2023-11-18T07:48:54;93793.28;;;5.62;62.67
10732;BME280;5417;42.686;23.244;2023-11-18T07:51:23;93796.25;;;5.69;62.98
10732;BME280;5417;42.686;23.244;2023-11-18T07:53:51;93804.00;;;5.69;62.61
10732;BME280;5417;42.686;23.244;2023-11-18T07:56:18;93799.06;;;5.66;62.77
10732;BME280;5417;42.686;23.244;2023-11-18T07:58:47;93796.81;;;5.61;62.89
10732;BME280;5417;42.686;23.244;2023-11-18T08:01:15;93793.78;;;5.67;62.72
10732;BME280;5417;42.686;23.244;2023-11-18T08:03:42;93793.16;;;5.77;63.44
10732;BME280;5417;42.686;23.244;2023-11-18T08:06:11;93765.34;;;5.56;62.75
10732;BME280;5417;42.686;23.244;2023-11-18T08:08:40;93802.34;;;5.68;62.83
10732;BME280;5417;42.686;23.244;2023-11-18T08:11:10;93800.09;;;5.63;62.08
10732;BME280;5417;42.686;23.244;2023-11-18T08:13:38;93801.53;;;5.67;61.56
10732;BME280;5417;42.686;23.244;2023-11-18T08:16:05;93802.19;;;5.58;61.93
10732;BME280;5417;42.686;23.244;2023-11-18T08:18:33;93805.38;;;5.62;62.71
10732;BME280;5417;42.686;23.244;2023-11-18T08:21:01;93807.75;;;5.65;62.51
10732;BME280;5417;42.686;23.244;2023-11-18T08:23:30;93826.34;;;5.57;62.08
10732;BME280;5417;42.686;23.244;2023-11-18T08:25:59;93820.25;;;5.58;62.10
10732;BME280;5417;42.686;23.244;2023-11-18T08:28:26;93832.84;;;5.63;61.65
10732;BME280;5417;42.686;23.244;2023-11-18T08:30:53;93838.09;;;5.74;62.91
10732;BME280;5417;42.686;23.244;2023-11-18T08:33:21;93843.91;;;5.89;62.93
10732;BME280;5417;42.686;23.244;2023-11-18T08:35:49;93844.09;;;5.98;62.63
10732;BME280;5417;42.686;23.244;2023-11-18T08:38:16;93829.78;;;6.06;62.33
10732;BME280;5417;42.686;23.244;2023-11-18T08:40:43;93845.84;;;5.98;61.27
10732;BME280;5417;42.686;23.244;2023-11-18T08:43:12;93838.91;;;5.75;62.11
10732;BME280;5417;42.686;23.244;2023-11-18T08:45:42;93852.66;;;5.75;61.54
10732;BME280;5417;42.686;23.244;2023-11-18T08:48:09;93858.63;;;5.76;61.33
10732;BME280;5417;42.686;23.244;2023-11-18T08:50:37;93866.34;;;5.52;62.45
10732;BME280;5417;42.686;23.244;2023-11-18T08:53:05;93865.22;;;5.43;61.64
10732;BME280;5417;42.686;23.244;2023-11-18T08:55:35;93871.47;;;5.28;62.94
10732;BME280;5417;42.686;23.244;2023-11-18T08:58:17;93872.81;;;5.08;63.70
10732;BME280;5417;42.686;23.244;2023-11-18T09:00:49;93877.34;;;5.04;63.06
10732;BME280;5417;42.686;23.244;2023-11-18T09:03:20;93868.47;;;5.08;63.01
10732;BME280;5417;42.686;23.244;2023-11-18T09:05:55;93872.50;;;5.13;63.39
10732;BME280;5417;42.686;23.244;2023-11-18T09:08:30;93855.88;;;5.17;63.25
10732;BME280;5417;42.686;23.244;2023-11-18T09:11:01;93866.09;;;5.05;63.96
10732;BME280;5417;42.686;23.244;2023-11-18T09:13:32;93862.28;;;5.11;64.46
10732;BME280;5417;42.686;23.244;2023-11-18T09:16:01;93851.97;;;5.24;63.74
10732;BME280;5417;42.686;23.244;2023-11-18T09:18:28;93850.09;;;5.26;63.83
10732;BME280;5417;42.686;23.244;2023-11-18T09:20:57;93845.13;;;5.35;63.61
10732;BME280;5417;42.686;23.244;2023-11-18T09:23:27;93840.34;;;5.42;63.26
10732;BME280;5417;42.686;23.244;2023-11-18T09:25:54;93843.47;;;5.34;62.58
10732;BME280;5417;42.686;23.244;2023-11-18T09:28:21;93842.88;;;5.18;64.00
10732;BME280;5417;42.686;23.244;2023-11-18T09:30:51;93833.09;;;5.11;63.37
10732;BME280;5417;42.686;23.244;2023-11-18T09:33:20;93830.19;;;5.15;63.40
10732;BME280;5417;42.686;23.244;2023-11-18T09:35:58;93831.34;;;5.24;63.77
10732;BME280;5417;42.686;23.244;2023-11-18T09:38:26;93822.16;;;5.07;63.40
10732;BME280;5417;42.686;23.244;2023-11-18T09:40:54;93826.88;;;5.26;64.00
10732;BME280;5417;42.686;23.244;2023-11-18T09:43:24;93817.72;;;5.22;63.89
10732;BME280;5417;42.686;23.244;2023-11-18T09:45:56;93825.41;;;5.34;63.75
10732;BME280;5417;42.686;23.244;2023-11-18T09:48:23;93819.03;;;5.27;62.43
10732;BME280;5417;42.686;23.244;2023-11-18T09:50:52;93818.22;;;5.27;63.38
10732;BME280;5417;42.686;23.244;2023-11-18T09:53:20;93816.03;;;5.33;62.93
10732;BME280;5417;42.686;23.244;2023-11-18T09:55:56;93813.13;;;5.38;62.76
10732;BME280;5417;42.686;23.244;2023-11-18T09:58:33;93810.25;;;5.17;62.55
10732;BME280;5417;42.686;23.244;2023-11-18T10:01:08;93808.94;;;5.24;62.83
10732;BME280;5417;42.686;23.244;2023-11-18T10:03:40;93802.31;;;5.33;62.57
10732;BME280;5417;42.686;23.244;2023-11-18T10:06:08;93805.53;;;5.24;62.62
10732;BME280;5417;42.686;23.244;2023-11-18T10:08:35;93801.31;;;5.23;62.80
10732;BME280;5417;42.686;23.244;2023-11-18T10:11:04;93799.75;;;5.20;63.07
10732;BME280;5417;42.686;23.244;2023-11-18T10:13:34;93808.41;;;5.32;62.13
10732;BME280;5417;42.686;23.244;2023-11-18T10:16:08;93793.03;;;5.18;61.76
10732;BME280;5417;42.686;23.244;2023-11-18T10:18:35;93804.16;;;5.31;62.64
10732;BME280;5417;42.686;23.244;2023-11-18T10:21:13;93797.56;;;5.27;62.58
10732;BME280;5417;42.686;23.244;2023-11-18T10:23:58;93809.16;;;5.21;63.15
10732;BME280;5417;42.686;23.244;2023-11-18T10:26:27;93810.69;;;5.24;62.92
10732;BME280;5417;42.686;23.244;2023-11-18T10:28:54;93808.50;;;5.30;62.27
10732;BME280;5417;42.686;23.244;2023-11-18T10:31:22;93811.56;;;5.35;61.97
10732;BME280;5417;42.686;23.244;2023-11-18T10:33:49;93810.03;;;5.33;61.32
10732;BME280;5417;42.686;23.244;2023-11-18T10:36:21;93812.91;;;5.41;61.41
10732;BME280;5417;42.686;23.244;2023-11-18T10:38:50;93815.38;;;5.43;61.80
10732;BME280;5417;42.686;23.244;2023-11-18T10:41:18;93806.41;;;5.35;61.12
10732;BME280;5417;42.686;23.244;2023-11-18T10:43:45;93822.84;;;5.34;61.85
10732;BME280;5417;42.686;23.244;2023-11-18T10:46:14;93816.84;;;5.34;61.19
10732;BME280;5417;42.686;23.244;2023-11-18T10:48:43;93819.38;;;5.47;61.36
10732;BME280;5417;42.686;23.244;2023-11-18T10:51:14;93815.31;;;5.55;61.13
10732;BME280;5417;42.686;23.244;2023-11-18T10:53:42;93811.81;;;5.56;60.22
10732;BME280;5417;42.686;23.244;2023-11-18T10:56:19;93826.75;;;5.64;60.38
10732;BME280;5417;42.686;23.244;2023-11-18T10:58:52;93815.97;;;5.70;60.19
10732;BME280;5417;42.686;23.244;2023-11-18T11:01:27;93816.88;;;5.82;60.40
10732;BME280;5417;42.686;23.244;2023-11-18T11:03:56;93812.44;;;5.84;60.42
10732;BME280;5417;42.686;23.244;2023-11-18T11:06:23;93817.19;;;5.90;60.13
10732;BME280;5417;42.686;23.244;2023-11-18T11:08:51;93811.50;;;5.85;59.71
10732;BME280;5417;42.686;23.244;2023-11-18T11:11:20;93800.59;;;5.68;59.30
10732;BME280;5417;42.686;23.244;2023-11-18T11:13:55;93816.19;;;5.67;59.77
10732;BME280;5417;42.686;23.244;2023-11-18T11:16:28;93806.19;;;5.62;60.04
10732;BME280;5417;42.686;23.244;2023-11-18T11:19:04;93797.53;;;5.39;61.21
10732;BME280;5417;42.686;23.244;2023-11-18T11:21:37;93815.59;;;5.39;61.21
10732;BME280;5417;42.686;23.244;2023-11-18T11:24:12;93814.00;;;5.50;61.01
10732;BME280;5417;42.686;23.244;2023-11-18T11:26:50;93807.53;;;5.44;60.92
10732;BME280;5417;42.686;23.244;2023-11-18T11:29:26;93790.72;;;5.38;61.20
10732;BME280;5417;42.686;23.244;2023-11-18T11:32:10;93816.63;;;5.37;60.71
10732;BME280;5417;42.686;23.244;2023-11-18T11:34:48;93817.88;;;5.31;62.26
10732;BME280;5417;42.686;23.244;2023-11-18T11:37:19;93806.03;;;5.29;61.82
10732;BME280;5417;42.686;23.244;2023-11-18T11:39:48;93807.47;;;5.33;61.31
10732;BME280;5417;42.686;23.244;2023-11-18T11:42:20;93799.44;;;5.25;60.93
10732;BME280;5417;42.686;23.244;2023-11-18T11:44:49;93798.06;;;5.32;61.98
10732;BME280;5417;42.686;23.244;2023-11-18T11:47:18;93790.16;;;5.22;61.48
10732;BME280;5417;42.686;23.244;2023-11-18T11:49:55;93800.75;;;5.30;61.72
10732;BME280;5417;42.686;23.244;2023-11-18T11:52:28;93811.78;;;5.32;61.85
10732;BME280;5417;42.686;23.244;2023-11-18T11:55:05;93799.81;;;5.31;61.48
10732;BME280;5417;42.686;23.244;2023-11-18T11:57:38;93800.09;;;5.39;61.73
10732;BME280;5417;42.686;23.244;2023-11-18T12:00:10;93787.09;;;5.41;61.54
10732;BME280;5417;42.686;23.244;2023-11-18T12:02:47;93781.53;;;5.58;61.42
10732;BME280;5417;42.686;23.244;2023-11-18T12:05:17;93789.50;;;5.55;61.52
10732;BME280;5417;42.686;23.244;2023-11-18T12:07:50;93805.94;;;5.54;60.64
10732;BME280;5417;42.686;23.244;2023-11-18T12:10:17;93795.94;;;5.50;61.10
10732;BME280;5417;42.686;23.244;2023-11-18T12:12:47;93799.72;;;5.57;61.39
10732;BME280;5417;42.686;23.244;2023-11-18T12:18:22;93810.38;;;5.28;61.56
10732;BME280;5417;42.686;23.244;2023-11-18T12:20:51;93812.19;;;5.39;61.87
10732;BME280;5417;42.686;23.244;2023-11-18T12:23:21;93813.91;;;5.51;61.56
10732;BME280;5417;42.686;23.244;2023-11-18T12:25:50;93812.41;;;5.60;61.05
10732;BME280;5417;42.686;23.244;2023-11-18T12:28:21;93809.72;;;5.61;60.56
10732;BME280;5417;42.686;23.244;2023-11-18T12:30:53;93809.88;;;5.47;60.77
10732;BME280;5417;42.686;23.244;2023-11-18T12:33:23;93813.78;;;5.53;61.15
10732;BME280;5417;42.686;23.244;2023-11-18T12:36:18;93803.34;;;5.54;61.04
10732;BME280;5417;42.686;23.244;2023-11-18T12:39:20;93816.03;;;5.57;61.77
10732;BME280;5417;42.686;23.244;2023-11-18T12:42:03;93788.53;;;5.45;61.96
10732;BME280;5417;42.686;23.244;2023-11-18T12:44:39;93802.84;;;5.49;61.91
10732;BME280;5417;42.686;23.244;2023-11-18T12:47:08;93797.59;;;5.51;62.12
10732;BME280;5417;42.686;23.244;2023-11-18T12:49:40;93790.38;;;5.43;62.23
10732;BME280;5417;42.686;23.244;2023-11-18T12:52:09;93795.81;;;5.51;62.13
10732;BME280;5417;42.686;23.244;2023-11-18T12:54:38;93799.22;;;5.52;62.38
10732;BME280;5417;42.686;23.244;2023-11-18T12:57:09;93803.72;;;5.61;61.61
10732;BME280;5417;42.686;23.244;2023-11-18T12:59:39;93805.38;;;5.62;61.19
10732;BME280;5417;42.686;23.244;2023-11-18T13:02:07;93807.78;;;5.52;61.39
10732;BME280;5417;42.686;23.244;2023-11-18T13:04:39;93808.50;;;5.54;61.88
10732;BME280;5417;42.686;23.244;2023-11-18T13:07:06;93825.09;;;5.63;61.53
10732;BME280;5417;42.686;23.244;2023-11-18T13:09:38;93815.31;;;5.55;61.66
10732;BME280;5417;42.686;23.244;2023-11-18T13:12:07;93825.22;;;5.61;61.33
10732;BME280;5417;42.686;23.244;2023-11-18T13:14:35;93841.56;;;5.49;61.51
10732;BME280;5417;42.686;23.244;2023-11-18T13:17:03;93810.44;;;5.39;61.28
10732;BME280;5417;42.686;23.244;2023-11-18T13:19:32;93843.75;;;5.43;61.40
10732;BME280;5417;42.686;23.244;2023-11-18T13:22:00;93836.28;;;5.51;61.46
10732;BME280;5417;42.686;23.244;2023-11-18T13:24:29;93828.81;;;5.35;61.62